createdAt,value
2022-10-30T00:01:17.202Z,9.80
2022-10-30T00:03:43.661Z,8.90
2022-10-30T00:06:10.175Z,8.88
2022-10-30T00:08:36.660Z,9.13
2022-10-30T00:11:16.297Z,9.70
2022-10-30T00:13:44.745Z,8.88
2022-10-30T00:16:11.344Z,8.93
2022-10-30T00:18:39.910Z,9.15
2022-10-30T00:21:12.403Z,8.35
2022-10-30T00:23:40.988Z,9.13
2022-10-30T00:26:08.072Z,9.55
2022-10-30T00:28:34.937Z,9.15
2022-10-30T00:31:05.468Z,8.65
2022-10-30T00:33:32.769Z,9.13
2022-10-30T00:35:59.903Z,10.18
2022-10-30T00:38:26.673Z,10.27
2022-10-30T00:40:53.420Z,8.50
2022-10-30T00:43:33.930Z,8.98
2022-10-30T00:46:22.899Z,8.95
2022-10-30T00:48:59.628Z,9.70
2022-10-30T00:51:28.769Z,9.70
2022-10-30T00:53:57.547Z,10.40
2022-10-30T00:56:24.692Z,9.70
2022-10-30T00:58:58.482Z,9.15
2022-10-30T01:01:27.527Z,9.20
2022-10-30T01:03:58.219Z,9.57
2022-10-30T01:06:25.685Z,9.20
2022-10-30T01:08:58.811Z,11.93
2022-10-30T01:11:26.962Z,9.65
2022-10-30T01:13:57.522Z,9.48
2022-10-30T01:16:37.563Z,10.77
2022-10-30T01:19:15.970Z,9.73
2022-10-30T01:22:03.834Z,9.85
2022-10-30T01:24:45.409Z,8.80
2022-10-30T01:27:27.099Z,9.80
2022-10-30T01:30:06.357Z,9.45
2022-10-30T01:32:35.493Z,9.32
2022-10-30T01:35:31.742Z,9.90
2022-10-30T01:38:13.959Z,10.10
2022-10-30T01:40:40.412Z,9.98
2022-10-30T01:43:12.613Z,9.13
2022-10-30T01:46:09.589Z,10.45
2022-10-30T01:48:54.028Z,9.43
2022-10-30T01:51:45.101Z,9.63
2022-10-30T01:54:27.931Z,9.95
2022-10-30T01:57:18.856Z,8.07
2022-10-30T01:59:58.157Z,8.43
2022-10-30T02:02:24.930Z,8.90
2022-10-30T02:04:51.710Z,9.32
2022-10-30T02:07:18.831Z,8.80
2022-10-30T02:09:45.395Z,9.52
2022-10-30T02:12:11.807Z,8.82
2022-10-30T02:14:43.086Z,9.32
2022-10-30T02:17:13.938Z,8.48
2022-10-30T02:19:40.352Z,9.32
2022-10-30T02:22:07.111Z,9.82
2022-10-30T02:24:33.575Z,9.23
2022-10-30T02:27:00.064Z,8.75
2022-10-30T02:29:26.840Z,7.68
2022-10-30T02:31:53.721Z,7.78
2022-10-30T02:34:23.180Z,8.85
2022-10-30T02:36:49.583Z,8.80
2022-10-30T02:39:16.006Z,8.00
2022-10-30T02:41:42.389Z,9.27
2022-10-30T02:44:08.859Z,9.57
2022-10-30T02:46:35.413Z,8.73
2022-10-30T02:49:02.752Z,9.02
2022-10-30T02:51:31.498Z,8.18
2022-10-30T02:54:01.153Z,8.75
2022-10-30T02:56:27.787Z,9.10
2022-10-30T02:58:55.899Z,9.02
2022-10-30T03:01:22.411Z,8.32
2022-10-30T03:03:48.925Z,7.93
2022-10-30T03:06:16.911Z,8.63
2022-10-30T03:08:44.362Z,8.73
2022-10-30T03:11:20.964Z,8.65
2022-10-30T03:13:48.458Z,10.15
2022-10-30T03:16:23.429Z,8.60
2022-10-30T03:18:55.549Z,8.57
2022-10-30T03:21:24.779Z,8.30
2022-10-30T03:23:51.503Z,8.48
2022-10-30T03:26:19.001Z,9.05
2022-10-30T03:28:45.478Z,9.40
2022-10-30T03:31:14.731Z,8.93
2022-10-30T03:33:41.505Z,8.85
2022-10-30T03:36:10.286Z,8.38
2022-10-30T03:38:37.481Z,9.02
2022-10-30T03:41:04.539Z,9.73
2022-10-30T03:43:31.105Z,7.95
2022-10-30T03:45:57.973Z,8.15
2022-10-30T03:48:26.398Z,9.05
2022-10-30T03:50:59.731Z,8.23
2022-10-30T03:53:28.363Z,8.35
2022-10-30T03:56:15.547Z,7.70
2022-10-30T03:58:41.965Z,7.50
2022-10-30T04:01:09.843Z,8.23
2022-10-30T04:03:36.420Z,9.50
2022-10-30T04:06:03.198Z,8.02
2022-10-30T04:08:32.719Z,9.50
2022-10-30T04:10:59.254Z,8.32
2022-10-30T04:13:26.131Z,8.45
2022-10-30T04:15:56.357Z,8.60
2022-10-30T04:18:25.393Z,7.90
2022-10-30T04:20:51.932Z,8.45
2022-10-30T04:23:20.081Z,8.10
2022-10-30T04:25:46.530Z,7.32
2022-10-30T04:28:13.566Z,8.98
2022-10-30T04:30:40.558Z,8.85
2022-10-30T04:33:10.333Z,7.90
2022-10-30T04:35:41.299Z,7.78
2022-10-30T04:38:10.421Z,7.68
2022-10-30T04:40:40.372Z,7.55
2022-10-30T04:43:07.893Z,7.53
2022-10-30T04:45:34.959Z,9.55
2022-10-30T04:48:21.688Z,7.75
2022-10-30T04:50:48.225Z,8.05
2022-10-30T04:53:27.352Z,7.72
2022-10-30T04:55:54.734Z,8.45
2022-10-30T04:58:21.189Z,7.30
2022-10-30T05:00:47.600Z,10.57
2022-10-30T05:03:23.012Z,7.32
2022-10-30T05:05:57.948Z,7.80
2022-10-30T05:08:24.473Z,7.65
2022-10-30T05:10:50.917Z,9.07
2022-10-30T05:13:17.293Z,10.60
2022-10-30T05:15:43.726Z,7.85
2022-10-30T05:18:10.580Z,8.95
2022-10-30T05:20:36.996Z,8.25
2022-10-30T05:23:03.629Z,7.65
2022-10-30T05:25:30.409Z,7.82
2022-10-30T05:28:04.912Z,7.65
2022-10-30T05:30:33.007Z,8.87
2022-10-30T05:33:11.721Z,8.32
2022-10-30T05:35:38.761Z,8.10
2022-10-30T05:38:07.226Z,10.55
2022-10-30T05:40:34.739Z,8.35
2022-10-30T05:43:02.130Z,8.48
2022-10-30T05:45:37.580Z,7.78
2022-10-30T05:50:35.333Z,7.40
2022-10-30T05:53:04.182Z,8.20
2022-10-30T05:55:31.087Z,7.90
2022-10-30T05:58:05.477Z,8.10
2022-10-30T06:00:35.158Z,8.67
2022-10-30T06:03:06.605Z,8.05
2022-10-30T06:05:36.216Z,8.00
2022-10-30T06:08:04.955Z,7.93
2022-10-30T06:10:32.026Z,8.65
2022-10-30T06:13:01.104Z,9.20
2022-10-30T06:15:29.645Z,8.55
2022-10-30T06:17:56.708Z,8.68
2022-10-30T06:20:26.337Z,7.97
2022-10-30T06:23:06.962Z,8.50
2022-10-30T06:25:40.732Z,9.02
2022-10-30T06:28:09.354Z,9.85
2022-10-30T06:30:35.912Z,8.60
2022-10-30T06:33:04.680Z,9.95
2022-10-30T06:35:32.089Z,8.23
2022-10-30T06:38:00.385Z,9.10
2022-10-30T06:40:28.243Z,9.30
2022-10-30T06:42:54.927Z,8.13
2022-10-30T06:45:23.488Z,8.55
2022-10-30T06:47:50.435Z,9.38
2022-10-30T06:50:19.405Z,8.95
2022-10-30T06:52:46.919Z,8.80
2022-10-30T06:55:13.695Z,8.98
2022-10-30T06:57:40.363Z,9.20
2022-10-30T07:00:08.461Z,9.20
2022-10-30T07:02:35.264Z,8.65
2022-10-30T07:05:07.450Z,8.70
2022-10-30T07:07:34.370Z,8.95
2022-10-30T07:10:00.899Z,8.98
2022-10-30T07:12:27.642Z,8.68
2022-10-30T07:14:54.119Z,9.50
2022-10-30T07:17:20.597Z,9.52
2022-10-30T07:19:47.029Z,8.45
2022-10-30T07:22:13.432Z,7.95
2022-10-30T07:24:39.882Z,8.55
2022-10-30T07:27:06.342Z,9.00
2022-10-30T07:29:32.831Z,9.68
2022-10-30T07:32:03.348Z,9.77
2022-10-30T07:34:30.545Z,8.75
2022-10-30T07:36:57.005Z,9.07
2022-10-30T07:39:23.589Z,9.57
2022-10-30T07:41:53.361Z,9.57
2022-10-30T07:44:19.774Z,8.98
2022-10-30T07:46:46.158Z,10.40
2022-10-30T07:49:12.593Z,9.52
2022-10-30T07:51:39.185Z,9.15
2022-10-30T07:54:05.742Z,9.32
2022-10-30T07:56:32.166Z,9.65
2022-10-30T07:58:58.650Z,8.98
2022-10-30T08:01:25.324Z,8.70
2022-10-30T08:03:51.949Z,9.25
2022-10-30T08:06:21.407Z,9.05
2022-10-30T08:08:51.202Z,8.63
2022-10-30T08:11:17.699Z,8.63
2022-10-30T08:13:44.174Z,8.60
2022-10-30T08:16:10.724Z,8.85
2022-10-30T08:18:42.339Z,8.82
2022-10-30T08:21:09.150Z,8.93
2022-10-30T08:23:35.825Z,10.35
2022-10-30T08:26:02.268Z,8.98
2022-10-30T08:28:31.815Z,8.85
2022-10-30T08:31:01.113Z,9.32
2022-10-30T08:33:27.655Z,11.88
2022-10-30T08:35:56.748Z,9.25
2022-10-30T08:38:23.905Z,9.40
2022-10-30T08:40:50.436Z,8.77
2022-10-30T08:43:16.834Z,9.23
2022-10-30T08:45:43.342Z,9.63
2022-10-30T08:48:11.924Z,8.65
2022-10-30T08:50:38.345Z,9.15
2022-10-30T08:53:08.285Z,8.05
2022-10-30T08:55:35.474Z,7.97
2022-10-30T08:58:02.052Z,7.45
2022-10-30T09:00:29.042Z,8.07
2022-10-30T09:02:56.151Z,7.25
2022-10-30T09:05:22.931Z,10.60
2022-10-30T09:07:49.367Z,7.45
2022-10-30T09:10:16.421Z,7.20
2022-10-30T09:12:42.892Z,7.35
2022-10-30T09:15:09.589Z,7.60
2022-10-30T09:17:36.094Z,7.32
2022-10-30T09:20:02.648Z,7.82
2022-10-30T09:22:29.191Z,7.15
2022-10-30T09:24:55.592Z,6.47
2022-10-30T09:27:22.029Z,6.82
2022-10-30T09:29:48.546Z,7.63
2022-10-30T09:32:15.004Z,6.55
2022-10-30T09:34:41.893Z,6.40
2022-10-30T09:37:08.399Z,6.88
2022-10-30T09:39:34.889Z,6.30
2022-10-30T09:42:07.387Z,5.72
2022-10-30T09:45:15.320Z,5.78
2022-10-30T09:47:41.883Z,6.80
2022-10-30T09:50:11.298Z,5.75
2022-10-30T09:52:53.734Z,5.53
2022-10-30T09:55:45.266Z,6.30
2022-10-30T09:58:24.565Z,5.65
2022-10-30T10:00:54.087Z,6.00
2022-10-30T10:03:32.798Z,6.00
2022-10-30T10:06:00.765Z,4.90
2022-10-30T10:08:34.048Z,6.32
2022-10-30T10:11:08.361Z,5.88
2022-10-30T10:13:42.049Z,5.37
2022-10-30T10:16:22.583Z,5.47
2022-10-30T10:19:09.286Z,5.68
2022-10-30T10:21:43.007Z,5.55
2022-10-30T10:24:34.778Z,5.85
2022-10-30T10:27:39.735Z,5.32
2022-10-30T10:30:20.165Z,5.38
2022-10-30T10:33:04.867Z,5.40
2022-10-30T10:35:51.275Z,4.40
2022-10-30T10:38:23.494Z,4.32
2022-10-30T10:40:52.834Z,4.70
2022-10-30T10:43:25.251Z,4.18
2022-10-30T10:46:22.764Z,5.20
2022-10-30T10:49:27.075Z,5.53
2022-10-30T10:52:09.929Z,5.00
2022-10-30T10:54:46.668Z,4.97
2022-10-30T10:57:32.484Z,4.38
2022-10-30T11:00:04.214Z,5.13
2022-10-30T11:02:59.085Z,4.72
2022-10-30T11:05:48.150Z,5.90
2022-10-30T11:08:19.840Z,4.28
2022-10-30T11:10:56.154Z,5.85
2022-10-30T11:13:25.006Z,4.78
2022-10-30T11:15:57.928Z,5.15
2022-10-30T11:18:25.089Z,5.22
2022-10-30T11:20:51.428Z,4.60
2022-10-30T11:23:34.586Z,4.90
2022-10-30T11:26:04.506Z,4.43
2022-10-30T11:28:48.944Z,5.32
2022-10-30T11:31:40.582Z,5.35
2022-10-30T11:34:14.767Z,5.00
2022-10-30T11:36:41.718Z,4.00
2022-10-30T11:39:28.853Z,5.13
2022-10-30T11:41:58.398Z,5.28
2022-10-30T11:44:32.930Z,4.88
2022-10-30T11:47:00.532Z,4.50
2022-10-30T11:50:07.680Z,4.47
2022-10-30T11:52:42.290Z,4.50
2022-10-30T11:55:18.253Z,3.83
2022-10-30T11:57:50.412Z,4.85
2022-10-30T12:00:23.227Z,4.18
2022-10-30T12:02:52.618Z,5.05
2022-10-30T12:05:43.604Z,5.25
2022-10-30T12:08:15.320Z,3.88
2022-10-30T12:10:47.701Z,4.95
2022-10-30T12:13:19.483Z,2.13
2022-10-30T12:15:49.898Z,4.38
2022-10-30T12:18:22.571Z,4.47
2022-10-30T12:20:55.582Z,3.88
2022-10-30T12:23:25.868Z,4.30
2022-10-30T12:25:59.435Z,4.70
2022-10-30T12:28:31.658Z,4.20
2022-10-30T12:31:21.491Z,4.38
2022-10-30T12:36:47.247Z,4.88
2022-10-30T12:39:31.278Z,3.85
2022-10-30T12:42:05.788Z,4.40
2022-10-30T12:44:48.626Z,3.85
2022-10-30T12:47:35.756Z,3.95
2022-10-30T12:50:14.095Z,3.42
2022-10-30T12:52:45.687Z,2.30
2022-10-30T12:55:26.893Z,3.55
2022-10-30T12:58:26.143Z,4.07
2022-10-30T13:01:01.007Z,3.17
2022-10-30T13:06:08.270Z,4.35
2022-10-30T13:08:37.740Z,3.25
2022-10-30T13:11:30.379Z,3.97
2022-10-30T13:13:59.310Z,4.05
2022-10-30T13:16:31.374Z,4.10
2022-10-30T13:19:00.655Z,4.45
2022-10-30T13:21:36.478Z,3.30
2022-10-30T13:24:23.688Z,4.93
2022-10-30T13:26:53.251Z,4.43
2022-10-30T13:29:27.239Z,3.83
2022-10-30T13:32:19.977Z,3.60
2022-10-30T13:35:15.722Z,4.55
2022-10-30T13:40:22.570Z,4.35
2022-10-30T13:43:16.942Z,3.67
2022-10-30T13:45:52.358Z,5.00
2022-10-30T13:48:37.518Z,4.35
2022-10-30T13:51:21.922Z,4.55
2022-10-30T13:53:58.425Z,4.45
2022-10-30T13:56:24.975Z,4.68
2022-10-30T13:59:07.949Z,6.00
2022-10-30T14:01:46.437Z,5.18
2022-10-30T14:04:17.247Z,4.78
2022-10-30T14:06:46.734Z,4.40
2022-10-30T14:09:43.179Z,4.25
2022-10-30T14:12:47.387Z,4.15
2022-10-30T14:15:32.197Z,4.75
2022-10-30T14:18:14.146Z,4.20
2022-10-30T14:20:46.310Z,5.53
2022-10-30T14:23:19.498Z,5.13
2022-10-30T14:26:13.600Z,4.55
2022-10-30T14:28:43.849Z,4.38
2022-10-30T14:31:18.647Z,5.47
2022-10-30T14:33:45.541Z,4.95
2022-10-30T14:36:22.521Z,4.60
2022-10-30T14:39:15.154Z,4.78
2022-10-30T14:41:49.476Z,5.50
2022-10-30T14:44:37.643Z,4.72
2022-10-30T14:47:25.990Z,5.32
2022-10-30T14:50:04.865Z,7.95
2022-10-30T14:52:48.530Z,5.50
2022-10-30T14:55:48.429Z,5.35
2022-10-30T14:58:21.288Z,5.72
2022-10-30T15:00:48.429Z,13.05
2022-10-30T15:03:30.398Z,6.18
2022-10-30T15:06:02.259Z,5.50
2022-10-30T15:08:41.009Z,6.22
2022-10-30T15:11:30.657Z,6.70
2022-10-30T15:14:01.334Z,5.63
2022-10-30T15:16:29.405Z,6.15
2022-10-30T15:19:04.426Z,7.72
2022-10-30T15:24:02.343Z,6.85
2022-10-30T15:26:35.986Z,7.10
2022-10-30T15:29:03.748Z,7.35
2022-10-30T15:31:30.248Z,6.43
2022-10-30T15:33:59.919Z,6.30
2022-10-30T15:36:30.432Z,6.30
2022-10-30T15:39:05.801Z,6.97
2022-10-30T15:41:42.134Z,6.80
2022-10-30T15:44:08.666Z,7.05
2022-10-30T15:46:35.185Z,6.80
2022-10-30T15:49:01.798Z,6.45
2022-10-30T15:51:28.337Z,7.43
2022-10-30T15:54:01.094Z,6.68
2022-10-30T15:56:33.283Z,7.30
2022-10-30T15:59:08.000Z,7.47
2022-10-30T16:01:43.498Z,8.30
2022-10-30T16:04:23.160Z,7.80
2022-10-30T16:07:17.918Z,10.55
2022-10-30T16:09:53.772Z,22.95
2022-10-30T16:12:21.103Z,8.73
2022-10-30T16:14:47.661Z,8.82
2022-10-30T16:17:14.137Z,9.00
2022-10-30T16:19:46.870Z,7.90
2022-10-30T16:22:19.077Z,8.57
2022-10-30T16:24:45.818Z,8.75
2022-10-30T16:27:21.070Z,7.80
2022-10-30T16:29:50.712Z,11.02
2022-10-30T16:32:21.235Z,13.93
2022-10-30T16:34:48.796Z,11.35
2022-10-30T16:37:24.460Z,8.55
2022-10-30T16:39:53.466Z,10.75
2022-10-30T16:42:29.128Z,10.57
2022-10-30T16:45:27.854Z,8.90
2022-10-30T16:48:00.166Z,12.52
2022-10-30T16:50:35.427Z,9.73
2022-10-30T16:53:18.562Z,8.52
2022-10-30T16:55:45.318Z,11.13
2022-10-30T16:58:13.828Z,13.00
2022-10-30T17:00:42.065Z,16.23
2022-10-30T17:03:11.535Z,10.68
2022-10-30T17:05:40.503Z,12.00
2022-10-30T17:08:27.119Z,14.55
2022-10-30T17:11:02.339Z,16.55
2022-10-30T17:15:55.898Z,14.80
2022-10-30T17:18:34.149Z,15.10
2022-10-30T17:21:11.107Z,14.70
2022-10-30T17:23:44.929Z,14.80
2022-10-30T17:26:12.830Z,12.23
2022-10-30T17:28:39.493Z,10.25
2022-10-30T17:31:31.951Z,9.05
2022-10-30T17:34:06.246Z,9.05
2022-10-30T17:36:32.900Z,12.73
2022-10-30T17:38:59.491Z,12.70
2022-10-30T17:41:26.117Z,13.90
2022-10-30T17:43:55.984Z,10.73
2022-10-30T17:46:24.038Z,11.70
2022-10-30T17:48:50.988Z,16.15
2022-10-30T17:51:18.899Z,12.80
2022-10-30T17:53:48.667Z,12.07
2022-10-30T17:56:19.595Z,13.75
2022-10-30T17:58:46.374Z,15.10
2022-10-30T18:01:22.217Z,12.23
2022-10-30T18:03:50.114Z,12.20
2022-10-30T18:06:25.898Z,11.40
2022-10-30T18:08:53.553Z,13.65
2022-10-30T18:11:25.054Z,13.95
2022-10-30T18:13:52.664Z,13.18
2022-10-30T18:16:19.794Z,15.98
2022-10-30T18:18:46.465Z,15.82
2022-10-30T18:21:17.661Z,23.02
2022-10-30T18:23:52.376Z,27.67
2022-10-30T18:26:25.242Z,27.27
2022-10-30T18:28:51.886Z,28.75
2022-10-30T18:31:23.750Z,30.83
2022-10-30T18:33:50.898Z,30.65
2022-10-30T18:36:20.256Z,19.15
2022-10-30T18:38:47.033Z,30.50
2022-10-30T18:41:15.248Z,30.55
2022-10-30T18:43:45.660Z,13.02
2022-10-30T18:46:14.630Z,11.40
2022-10-30T18:48:41.113Z,18.42
2022-10-30T18:51:16.293Z,16.45
2022-10-30T18:53:50.966Z,16.35
2022-10-30T18:56:27.526Z,16.55
2022-10-30T18:58:58.790Z,14.93
2022-10-30T19:01:31.513Z,17.85
2022-10-30T19:04:00.886Z,12.75
2022-10-30T19:06:27.676Z,14.07
2022-10-30T19:08:54.053Z,15.82
2022-10-30T19:11:24.637Z,16.17
2022-10-30T19:13:53.741Z,12.95
2022-10-30T19:16:21.264Z,11.73
2022-10-30T19:18:48.444Z,16.67
2022-10-30T19:21:35.232Z,14.90
2022-10-30T19:24:02.734Z,13.27
2022-10-30T19:26:29.120Z,11.77
2022-10-30T19:28:55.623Z,13.57
2022-10-30T19:31:22.166Z,12.45
2022-10-30T19:33:53.032Z,10.50
2022-10-30T19:36:33.491Z,10.35
2022-10-30T19:39:05.753Z,10.65
2022-10-30T19:41:35.333Z,10.10
2022-10-30T19:44:01.714Z,12.70
2022-10-30T19:46:28.128Z,11.88
2022-10-30T19:48:57.708Z,10.68
2022-10-30T19:51:26.407Z,12.25
2022-10-30T19:53:53.715Z,14.45
2022-10-30T19:56:21.035Z,13.57
2022-10-30T19:58:47.747Z,13.52
2022-10-30T20:01:14.808Z,11.35
2022-10-30T20:03:41.400Z,13.88
2022-10-30T20:06:12.973Z,12.10
2022-10-30T20:08:39.412Z,12.70
2022-10-30T20:11:05.901Z,11.90
2022-10-30T20:13:33.394Z,12.07
2022-10-30T20:16:00.729Z,13.63
2022-10-30T20:18:30.592Z,16.25
2022-10-30T20:20:59.589Z,18.00
2022-10-30T20:23:26.400Z,13.25
2022-10-30T20:25:57.503Z,12.73
2022-10-30T20:28:28.445Z,14.70
2022-10-30T20:30:55.435Z,13.38
2022-10-30T20:33:23.158Z,11.85
2022-10-30T20:35:51.088Z,12.52
2022-10-30T20:38:20.152Z,13.27
2022-10-30T20:40:47.951Z,13.38
2022-10-30T20:43:20.114Z,13.27
2022-10-30T20:45:47.444Z,14.00
2022-10-30T20:48:14.116Z,13.23
2022-10-30T20:50:41.635Z,12.50
2022-10-30T20:53:12.111Z,13.15
2022-10-30T20:55:38.838Z,12.63
2022-10-30T20:58:06.141Z,11.70
2022-10-30T21:00:32.790Z,12.50
2022-10-30T21:03:01.852Z,10.60
2022-10-30T21:05:43.159Z,11.85
2022-10-30T21:08:11.089Z,11.82
2022-10-30T21:10:38.395Z,11.65
2022-10-30T21:13:08.669Z,11.38
2022-10-30T21:15:41.640Z,12.15
2022-10-30T21:18:08.867Z,12.52
2022-10-30T21:20:36.795Z,13.65
2022-10-30T21:23:03.730Z,12.80
2022-10-30T21:25:32.215Z,14.73
2022-10-30T21:27:59.140Z,12.70
2022-10-30T21:30:25.687Z,12.48
2022-10-30T21:32:52.172Z,13.48
2022-10-30T21:35:18.941Z,13.32
2022-10-30T21:37:45.437Z,11.10
2022-10-30T21:40:12.580Z,13.38
2022-10-30T21:42:39.062Z,11.25
2022-10-30T21:45:06.316Z,12.15
2022-10-30T21:47:32.725Z,13.43
2022-10-30T21:49:59.142Z,12.85
2022-10-30T21:52:25.553Z,14.48
2022-10-30T21:54:51.965Z,13.88
2022-10-30T21:57:25.520Z,15.25
2022-10-30T21:59:51.953Z,13.15
2022-10-30T22:02:18.463Z,15.50
2022-10-30T22:04:47.297Z,14.68
2022-10-30T22:07:13.772Z,14.75
2022-10-30T22:09:40.158Z,14.38
2022-10-30T22:12:06.999Z,14.85
2022-10-30T22:14:33.442Z,14.52
2022-10-30T22:16:59.899Z,13.57
2022-10-30T22:19:26.330Z,14.93
2022-10-30T22:21:52.722Z,13.45
2022-10-30T22:24:19.158Z,14.93
2022-10-30T22:26:46.228Z,14.20
2022-10-30T22:29:12.756Z,14.43
2022-10-30T22:31:39.150Z,15.13
2022-10-30T22:34:05.556Z,14.55
2022-10-30T22:36:33.596Z,14.00
2022-10-30T22:39:05.650Z,13.77
2022-10-30T22:41:36.491Z,13.32
2022-10-30T22:44:08.001Z,12.32
2022-10-30T22:46:35.710Z,14.27
2022-10-30T22:49:02.286Z,13.38
2022-10-30T22:51:32.887Z,14.70
2022-10-30T22:54:01.779Z,13.10
2022-10-30T22:56:31.512Z,12.85
2022-10-30T22:59:00.993Z,12.90
2022-10-30T23:01:29.651Z,14.95
2022-10-30T23:03:58.593Z,12.90
2022-10-30T23:06:25.750Z,13.95
2022-10-30T23:08:54.549Z,13.02
2022-10-30T23:11:21.309Z,14.18
2022-10-30T23:13:48.391Z,12.93
2022-10-30T23:16:18.874Z,12.98
2022-10-30T23:18:46.271Z,13.48
2022-10-30T23:21:16.170Z,12.73
2022-10-30T23:23:43.532Z,13.00
2022-10-30T23:26:17.324Z,12.48
2022-10-30T23:28:44.931Z,13.43
2022-10-30T23:31:30.562Z,12.15
2022-10-30T23:33:59.464Z,13.15
2022-10-30T23:36:26.985Z,13.05
2022-10-30T23:38:55.038Z,13.00
2022-10-30T23:41:23.573Z,11.73
2022-10-30T23:43:53.913Z,13.02
2022-10-30T23:46:20.527Z,12.98
2022-10-30T23:48:47.221Z,12.27
2022-10-30T23:51:13.835Z,12.85
2022-10-30T23:53:40.250Z,12.50
2022-10-30T23:56:07.171Z,13.20
2022-10-30T23:58:33.621Z,12.52
